sensor_id;sensor_type;location;lat;lon;timestamp;temperature;humidity
569;DHT22;269;48.884;9.192;2023-07-13T00:01:46;20.50;99.90
569;DHT22;269;48.884;9.192;2023-07-13T00:04:34;20.50;99.90
569;DHT22;269;48.884;9.192;2023-07-13T00:07:03;20.50;99.90
569;DHT22;269;48.884;9.192;2023-07-13T00:09:30;20.40;99.90
569;DHT22;269;48.884;9.192;2023-07-13T00:11:57;20.40;99.90
569;DHT22;269;48.884;9.192;2023-07-13T00:14:27;20.30;99.90
569;DHT22;269;48.884;9.192;2023-07-13T00:16:55;20.20;99.90
569;DHT22;269;48.884;9.192;2023-07-13T00:19:22;20.20;99.90
569;DHT22;269;48.884;9.192;2023-07-13T00:21:51;20.10;99.90
569;DHT22;269;48.884;9.192;2023-07-13T00:24:22;20.10;99.90
569;DHT22;269;48.884;9.192;2023-07-13T00:26:50;20.10;99.90
569;DHT22;269;48.884;9.192;2023-07-13T00:29:17;20.00;99.90
569;DHT22;269;48.884;9.192;2023-07-13T00:31:44;19.90;99.90
569;DHT22;269;48.884;9.192;2023-07-13T00:34:12;19.90;99.90
569;DHT22;269;48.884;9.192;2023-07-13T00:36:39;19.90;99.90
569;DHT22;269;48.884;9.192;2023-07-13T00:39:06;19.80;99.90
569;DHT22;269;48.884;9.192;2023-07-13T00:41:35;19.80;99.90
569;DHT22;269;48.884;9.192;2023-07-13T00:44:02;19.80;99.90
569;DHT22;269;48.884;9.192;2023-07-13T00:46:31;19.70;99.90
569;DHT22;269;48.884;9.192;2023-07-13T00:49:01;19.70;99.90
569;DHT22;269;48.884;9.192;2023-07-13T00:51:32;19.70;99.90
569;DHT22;269;48.884;9.192;2023-07-13T00:54:04;19.70;99.90
569;DHT22;269;48.884;9.192;2023-07-13T00:56:34;19.60;99.90
569;DHT22;269;48.884;9.192;2023-07-13T00:59:03;19.60;99.90
569;DHT22;269;48.884;9.192;2023-07-13T01:01:31;19.50;99.90
569;DHT22;269;48.884;9.192;2023-07-13T01:03:58;19.50;99.90
569;DHT22;269;48.884;9.192;2023-07-13T01:06:25;19.50;99.90
569;DHT22;269;48.884;9.192;2023-07-13T01:08:52;19.50;99.90
569;DHT22;269;48.884;9.192;2023-07-13T01:11:21;19.50;99.90
569;DHT22;269;48.884;9.192;2023-07-13T01:13:49;19.40;99.90
569;DHT22;269;48.884;9.192;2023-07-13T01:16:23;19.40;99.90
569;DHT22;269;48.884;9.192;2023-07-13T01:18:51;19.30;99.90
569;DHT22;269;48.884;9.192;2023-07-13T01:21:19;19.30;99.90
569;DHT22;269;48.884;9.192;2023-07-13T01:23:46;19.20;99.90
569;DHT22;269;48.884;9.192;2023-07-13T01:26:14;19.20;99.90
569;DHT22;269;48.884;9.192;2023-07-13T01:28:41;19.10;99.90
569;DHT22;269;48.884;9.192;2023-07-13T01:31:08;19.10;99.90
569;DHT22;269;48.884;9.192;2023-07-13T01:33:36;19.10;99.90
569;DHT22;269;48.884;9.192;2023-07-13T01:36:04;19.10;99.90
569;DHT22;269;48.884;9.192;2023-07-13T01:38:33;19.00;99.90
569;DHT22;269;48.884;9.192;2023-07-13T01:41:00;19.00;99.90
569;DHT22;269;48.884;9.192;2023-07-13T01:43:27;18.90;99.90
569;DHT22;269;48.884;9.192;2023-07-13T01:45:54;18.90;99.90
569;DHT22;269;48.884;9.192;2023-07-13T01:48:21;18.90;99.90
569;DHT22;269;48.884;9.192;2023-07-13T01:50:48;18.90;99.90
569;DHT22;269;48.884;9.192;2023-07-13T01:53:15;18.90;99.90
569;DHT22;269;48.884;9.192;2023-07-13T01:55:44;18.90;99.90
569;DHT22;269;48.884;9.192;2023-07-13T01:58:11;18.90;99.90
569;DHT22;269;48.884;9.192;2023-07-13T02:00:38;18.90;99.90
569;DHT22;269;48.884;9.192;2023-07-13T02:03:05;18.90;99.90
569;DHT22;269;48.884;9.192;2023-07-13T02:05:32;18.80;99.90
569;DHT22;269;48.884;9.192;2023-07-13T02:07:59;18.80;99.90
569;DHT22;269;48.884;9.192;2023-07-13T02:10:26;18.70;99.90
569;DHT22;269;48.884;9.192;2023-07-13T02:12:55;18.70;99.90
569;DHT22;269;48.884;9.192;2023-07-13T02:15:22;18.70;99.90
569;DHT22;269;48.884;9.192;2023-07-13T02:17:49;18.60;99.90
569;DHT22;269;48.884;9.192;2023-07-13T02:20:16;18.60;99.90
569;DHT22;269;48.884;9.192;2023-07-13T02:22:43;18.50;99.90
569;DHT22;269;48.884;9.192;2023-07-13T02:25:11;18.50;99.90
569;DHT22;269;48.884;9.192;2023-07-13T02:27:37;18.50;99.90
569;DHT22;269;48.884;9.192;2023-07-13T02:30:07;18.40;99.90
569;DHT22;269;48.884;9.192;2023-07-13T02:32:34;18.40;99.90
569;DHT22;269;48.884;9.192;2023-07-13T02:35:01;18.40;99.90
569;DHT22;269;48.884;9.192;2023-07-13T02:37:29;18.30;99.90
569;DHT22;269;48.884;9.192;2023-07-13T02:39:57;18.30;99.90
569;DHT22;269;48.884;9.192;2023-07-13T02:42:24;18.30;99.90
569;DHT22;269;48.884;9.192;2023-07-13T02:44:51;18.20;99.90
569;DHT22;269;48.884;9.192;2023-07-13T02:47:19;18.20;99.90
569;DHT22;269;48.884;9.192;2023-07-13T02:49:46;18.10;99.90
569;DHT22;269;48.884;9.192;2023-07-13T02:52:13;18.10;99.90
569;DHT22;269;48.884;9.192;2023-07-13T02:54:40;18.00;99.90
569;DHT22;269;48.884;9.192;2023-07-13T02:57:07;18.10;99.90
569;DHT22;269;48.884;9.192;2023-07-13T02:59:35;18.10;99.90
569;DHT22;269;48.884;9.192;2023-07-13T03:02:03;18.00;99.90
569;DHT22;269;48.884;9.192;2023-07-13T03:04:31;18.00;99.90
569;DHT22;269;48.884;9.192;2023-07-13T03:06:58;18.00;99.90
569;DHT22;269;48.884;9.192;2023-07-13T03:09:25;18.00;99.90
569;DHT22;269;48.884;9.192;2023-07-13T03:11:53;17.90;99.90
569;DHT22;269;48.884;9.192;2023-07-13T03:14:21;17.90;99.90
569;DHT22;269;48.884;9.192;2023-07-13T03:16:49;17.80;99.90
569;DHT22;269;48.884;9.192;2023-07-13T03:19:16;17.80;99.90
569;DHT22;269;48.884;9.192;2023-07-13T03:21:44;17.80;99.90
569;DHT22;269;48.884;9.192;2023-07-13T03:24:11;17.80;99.90
569;DHT22;269;48.884;9.192;2023-07-13T03:26:38;17.80;99.90
569;DHT22;269;48.884;9.192;2023-07-13T03:29:05;17.80;99.90
569;DHT22;269;48.884;9.192;2023-07-13T03:31:34;17.80;99.90
569;DHT22;269;48.884;9.192;2023-07-13T03:34:02;17.80;99.90
569;DHT22;269;48.884;9.192;2023-07-13T03:36:31;17.80;99.90
569;DHT22;269;48.884;9.192;2023-07-13T03:39:02;17.90;99.90
569;DHT22;269;48.884;9.192;2023-07-13T03:41:29;17.90;99.90
569;DHT22;269;48.884;9.192;2023-07-13T03:43:57;18.30;99.90
569;DHT22;269;48.884;9.192;2023-07-13T03:46:25;18.00;99.90
569;DHT22;269;48.884;9.192;2023-07-13T03:48:52;18.00;99.90
569;DHT22;269;48.884;9.192;2023-07-13T03:51:19;18.10;99.90
569;DHT22;269;48.884;9.192;2023-07-13T03:53:49;18.10;99.90
569;DHT22;269;48.884;9.192;2023-07-13T03:56:18;18.10;99.90
569;DHT22;269;48.884;9.192;2023-07-13T03:58:46;18.10;99.90
569;DHT22;269;48.884;9.192;2023-07-13T04:01:16;18.10;99.90
569;DHT22;269;48.884;9.192;2023-07-13T04:03:43;18.10;99.90
569;DHT22;269;48.884;9.192;2023-07-13T04:06:15;18.20;99.90
569;DHT22;269;48.884;9.192;2023-07-13T04:08:48;18.20;99.90
569;DHT22;269;48.884;9.192;2023-07-13T04:11:19;18.20;99.90
569;DHT22;269;48.884;9.192;2023-07-13T04:13:47;18.40;99.90
569;DHT22;269;48.884;9.192;2023-07-13T04:16:15;18.20;99.90
569;DHT22;269;48.884;9.192;2023-07-13T04:18:42;18.20;99.90
569;DHT22;269;48.884;9.192;2023-07-13T04:21:10;18.20;99.90
569;DHT22;269;48.884;9.192;2023-07-13T04:23:38;18.20;99.90
569;DHT22;269;48.884;9.192;2023-07-13T04:26:05;18.20;99.90
569;DHT22;269;48.884;9.192;2023-07-13T04:28:34;18.30;99.90
569;DHT22;269;48.884;9.192;2023-07-13T04:31:01;18.30;99.90
569;DHT22;269;48.884;9.192;2023-07-13T04:33:29;18.30;99.90
569;DHT22;269;48.884;9.192;2023-07-13T04:35:56;18.30;99.90
569;DHT22;269;48.884;9.192;2023-07-13T04:38:28;18.30;99.90
569;DHT22;269;48.884;9.192;2023-07-13T04:40:56;18.30;99.90
569;DHT22;269;48.884;9.192;2023-07-13T04:43:25;18.30;99.90
569;DHT22;269;48.884;9.192;2023-07-13T04:45:53;18.30;99.90
569;DHT22;269;48.884;9.192;2023-07-13T04:48:21;18.20;99.90
569;DHT22;269;48.884;9.192;2023-07-13T04:50:54;18.20;99.90
569;DHT22;269;48.884;9.192;2023-07-13T04:53:22;18.20;99.90
569;DHT22;269;48.884;9.192;2023-07-13T04:55:50;18.40;99.90
569;DHT22;269;48.884;9.192;2023-07-13T04:58:17;18.20;99.90
569;DHT22;269;48.884;9.192;2023-07-13T05:00:45;18.10;99.90
569;DHT22;269;48.884;9.192;2023-07-13T05:03:13;18.10;99.90
569;DHT22;269;48.884;9.192;2023-07-13T05:05:40;18.10;99.90
569;DHT22;269;48.884;9.192;2023-07-13T05:08:07;18.10;99.90
569;DHT22;269;48.884;9.192;2023-07-13T05:10:35;18.20;99.90
569;DHT22;269;48.884;9.192;2023-07-13T05:13:02;18.40;99.90
569;DHT22;269;48.884;9.192;2023-07-13T05:15:30;18.20;99.90
569;DHT22;269;48.884;9.192;2023-07-13T05:17:58;18.30;99.90
569;DHT22;269;48.884;9.192;2023-07-13T05:20:26;18.40;99.90
569;DHT22;269;48.884;9.192;2023-07-13T05:22:53;18.40;99.90
569;DHT22;269;48.884;9.192;2023-07-13T05:25:21;18.40;99.90
569;DHT22;269;48.884;9.192;2023-07-13T05:27:48;18.40;99.90
569;DHT22;269;48.884;9.192;2023-07-13T05:30:15;18.40;99.90
569;DHT22;269;48.884;9.192;2023-07-13T05:32:42;18.40;99.90
569;DHT22;269;48.884;9.192;2023-07-13T05:35:09;18.30;99.90
569;DHT22;269;48.884;9.192;2023-07-13T05:37:38;18.50;99.90
569;DHT22;269;48.884;9.192;2023-07-13T05:40:06;18.40;99.90
569;DHT22;269;48.884;9.192;2023-07-13T05:42:34;18.50;99.90
569;DHT22;269;48.884;9.192;2023-07-13T05:45:02;18.50;99.90
569;DHT22;269;48.884;9.192;2023-07-13T05:47:29;18.50;99.90
569;DHT22;269;48.884;9.192;2023-07-13T05:49:56;18.50;99.90
569;DHT22;269;48.884;9.192;2023-07-13T05:52:23;18.60;99.90
569;DHT22;269;48.884;9.192;2023-07-13T05:54:51;18.60;99.90
569;DHT22;269;48.884;9.192;2023-07-13T05:57:18;18.70;99.90
569;DHT22;269;48.884;9.192;2023-07-13T05:59:45;18.70;99.90
569;DHT22;269;48.884;9.192;2023-07-13T06:02:14;18.70;99.90
569;DHT22;269;48.884;9.192;2023-07-13T06:04:41;18.70;99.90
569;DHT22;269;48.884;9.192;2023-07-13T06:07:08;18.70;99.90
569;DHT22;269;48.884;9.192;2023-07-13T06:09:35;18.90;99.90
569;DHT22;269;48.884;9.192;2023-07-13T06:12:04;18.90;99.90
569;DHT22;269;48.884;9.192;2023-07-13T06:14:32;18.90;99.90
569;DHT22;269;48.884;9.192;2023-07-13T06:16:59;18.90;99.90
569;DHT22;269;48.884;9.192;2023-07-13T06:19:26;19.00;99.90
569;DHT22;269;48.884;9.192;2023-07-13T06:21:53;19.10;99.90
569;DHT22;269;48.884;9.192;2023-07-13T06:24:20;19.50;99.90
569;DHT22;269;48.884;9.192;2023-07-13T06:26:47;19.20;99.90
569;DHT22;269;48.884;9.192;2023-07-13T06:29:15;19.20;99.90
569;DHT22;269;48.884;9.192;2023-07-13T06:31:43;19.20;99.90
569;DHT22;269;48.884;9.192;2023-07-13T06:34:10;19.40;99.90
569;DHT22;269;48.884;9.192;2023-07-13T06:36:37;19.40;99.90
569;DHT22;269;48.884;9.192;2023-07-13T06:39:06;19.40;99.90
569;DHT22;269;48.884;9.192;2023-07-13T06:41:34;19.40;99.90
569;DHT22;269;48.884;9.192;2023-07-13T06:44:01;19.40;99.90
569;DHT22;269;48.884;9.192;2023-07-13T06:46:30;19.50;99.90
569;DHT22;269;48.884;9.192;2023-07-13T06:48:57;19.50;99.90
569;DHT22;269;48.884;9.192;2023-07-13T06:51:24;19.70;99.90
569;DHT22;269;48.884;9.192;2023-07-13T06:53:52;19.90;99.90
569;DHT22;269;48.884;9.192;2023-07-13T06:56:20;19.90;99.90
569;DHT22;269;48.884;9.192;2023-07-13T06:58:47;20.00;99.90
569;DHT22;269;48.884;9.192;2023-07-13T07:01:14;20.10;99.90
569;DHT22;269;48.884;9.192;2023-07-13T07:03:42;20.20;99.90
569;DHT22;269;48.884;9.192;2023-07-13T07:06:15;20.40;99.90
569;DHT22;269;48.884;9.192;2023-07-13T07:08:43;20.60;99.90
569;DHT22;269;48.884;9.192;2023-07-13T07:11:13;20.70;99.90
569;DHT22;269;48.884;9.192;2023-07-13T07:13:40;20.80;99.90
569;DHT22;269;48.884;9.192;2023-07-13T07:16:07;20.90;99.90
569;DHT22;269;48.884;9.192;2023-07-13T07:18:35;21.00;99.90
569;DHT22;269;48.884;9.192;2023-07-13T07:21:03;21.20;99.90
569;DHT22;269;48.884;9.192;2023-07-13T07:23:31;21.30;99.90
569;DHT22;269;48.884;9.192;2023-07-13T07:25:58;21.20;99.90
569;DHT22;269;48.884;9.192;2023-07-13T07:28:26;21.10;99.90
569;DHT22;269;48.884;9.192;2023-07-13T07:30:56;21.30;99.90
569;DHT22;269;48.884;9.192;2023-07-13T07:33:23;21.20;99.90
569;DHT22;269;48.884;9.192;2023-07-13T07:35:51;21.00;99.90
569;DHT22;269;48.884;9.192;2023-07-13T07:38:20;21.00;99.90
569;DHT22;269;48.884;9.192;2023-07-13T07:40:47;21.40;99.90
569;DHT22;269;48.884;9.192;2023-07-13T07:43:14;21.80;99.90
569;DHT22;269;48.884;9.192;2023-07-13T07:45:41;22.30;99.90
569;DHT22;269;48.884;9.192;2023-07-13T07:48:08;22.60;99.90
569;DHT22;269;48.884;9.192;2023-07-13T07:50:35;22.80;99.90
569;DHT22;269;48.884;9.192;2023-07-13T07:53:05;22.90;99.20
569;DHT22;269;48.884;9.192;2023-07-13T07:55:34;23.00;98.20
569;DHT22;269;48.884;9.192;2023-07-13T07:58:01;22.90;97.10
569;DHT22;269;48.884;9.192;2023-07-13T08:00:29;22.90;98.20
569;DHT22;269;48.884;9.192;2023-07-13T08:02:57;22.90;98.30
569;DHT22;269;48.884;9.192;2023-07-13T08:05:24;22.90;98.50
569;DHT22;269;48.884;9.192;2023-07-13T08:07:51;23.10;96.50
569;DHT22;269;48.884;9.192;2023-07-13T08:10:19;23.20;96.60
569;DHT22;269;48.884;9.192;2023-07-13T08:12:47;23.30;95.40
569;DHT22;269;48.884;9.192;2023-07-13T08:15:17;23.50;95.20
569;DHT22;269;48.884;9.192;2023-07-13T08:17:47;23.50;94.80
569;DHT22;269;48.884;9.192;2023-07-13T08:20:15;23.50;94.00
569;DHT22;269;48.884;9.192;2023-07-13T08:22:42;23.60;94.80
